Terminal Aerodrome Forecast
Issued by NWS

Home | Current Version | Previous Version | Text Only | Print | Product List | Glossary On
Versions: 1 2 3 4 5 6 7 8 9 10 11 12 13 14 15 16
000
FTUS45 KABQ 111100
TAFLVS
TAF
KLVS 111135Z 1112/1212 18010KT P6SM SCT100
     FM111800 17013G23KT P6SM SCT100
     FM120200 18010KT P6SM SCT120
     FM121000 18007KT P6SM BKN035=

USA.gov is the U.S. government's official web portal to all federal, state and local government web resources and services.